createdAt,value
2018-10-11T00:01:56.795Z,36.67
2018-10-11T00:04:25.476Z,36.87
2018-10-11T00:06:54.658Z,37.30
2018-10-11T00:09:23.492Z,36.03
2018-10-11T00:11:52.161Z,35.83
2018-10-11T00:14:20.854Z,36.20
2018-10-11T00:16:49.747Z,36.73
2018-10-11T00:19:18.366Z,37.37
2018-10-11T00:21:46.983Z,37.50
2018-10-11T00:24:15.586Z,36.77
2018-10-11T00:26:44.321Z,38.47
2018-10-11T00:29:13.009Z,37.17
2018-10-11T00:31:41.667Z,38.70
2018-10-11T00:34:10.355Z,38.40
2018-10-11T00:36:38.979Z,38.13
2018-10-11T00:39:07.963Z,37.83
2018-10-11T00:41:36.639Z,39.10
2018-10-11T00:44:05.297Z,37.13
2018-10-11T00:46:33.993Z,38.40
2018-10-11T00:49:02.663Z,37.40
2018-10-11T00:51:31.248Z,38.10
2018-10-11T00:54:00.079Z,38.53
2018-10-11T00:56:28.725Z,38.83
2018-10-11T00:58:57.477Z,37.87
2018-10-11T01:01:26.125Z,38.97
2018-10-11T01:03:54.770Z,38.53
2018-10-11T01:06:23.456Z,38.90
2018-10-11T01:08:52.036Z,37.87
2018-10-11T01:11:20.698Z,39.63
2018-10-11T01:13:49.414Z,38.20
2018-10-11T01:16:17.982Z,38.07
2018-10-11T01:18:46.606Z,38.50
2018-10-11T01:21:15.295Z,37.57
2018-10-11T01:23:44.062Z,37.77
2018-10-11T01:26:12.823Z,37.83
2018-10-11T01:28:41.506Z,37.57
2018-10-11T01:31:15.495Z,36.50
2018-10-11T01:33:44.109Z,36.50
2018-10-11T01:36:12.727Z,36.97
2018-10-11T01:38:41.361Z,37.67
2018-10-11T01:41:09.985Z,36.27
2018-10-11T01:43:38.685Z,37.10
2018-10-11T01:46:07.393Z,37.93
2018-10-11T01:48:36.030Z,36.73
2018-10-11T01:51:04.642Z,36.70
2018-10-11T01:53:33.301Z,37.27
2018-10-11T01:56:02.005Z,38.53
2018-10-11T01:58:30.621Z,38.07
2018-10-11T02:00:59.319Z,38.87
2018-10-11T02:03:28.064Z,40.40
2018-10-11T02:05:57.022Z,40.07
2018-10-11T02:08:25.639Z,40.40
2018-10-11T02:10:54.282Z,40.53
2018-10-11T02:13:22.871Z,40.23
2018-10-11T02:15:51.475Z,39.57
2018-10-11T02:18:20.103Z,41.10
2018-10-11T02:20:48.784Z,39.87
2018-10-11T02:23:17.408Z,40.17
2018-10-11T02:25:46.096Z,40.43
2018-10-11T02:28:14.706Z,38.27
2018-10-11T02:30:43.365Z,38.20
2018-10-11T02:33:12.032Z,38.13
2018-10-11T02:35:40.742Z,37.03
2018-10-11T02:38:09.328Z,37.00
2018-10-11T02:40:38.073Z,36.30
2018-10-11T02:43:06.729Z,37.93
2018-10-11T02:45:35.389Z,36.47
2018-10-11T02:48:04.069Z,37.07
2018-10-11T02:50:32.739Z,36.53
2018-10-11T02:53:01.959Z,36.93
2018-10-11T02:55:30.743Z,35.57
2018-10-11T02:58:05.030Z,35.37
2018-10-11T03:00:33.823Z,35.03
2018-10-11T03:03:04.972Z,36.13
2018-10-11T03:05:35.064Z,35.53
2018-10-11T03:08:03.751Z,34.87
2018-10-11T03:10:32.830Z,34.77
2018-10-11T03:13:01.562Z,35.67
2018-10-11T03:15:30.259Z,33.47
2018-10-11T03:17:59.128Z,34.73
2018-10-11T03:20:27.818Z,33.67
2018-10-11T03:22:56.628Z,33.80
2018-10-11T03:25:25.267Z,34.17
2018-10-11T03:27:54.168Z,33.23
2018-10-11T03:30:22.847Z,33.33
2018-10-11T03:32:51.500Z,35.03
2018-10-11T03:35:20.762Z,33.80
2018-10-11T03:37:49.422Z,34.43
2018-10-11T03:40:18.041Z,34.37
2018-10-11T03:42:46.679Z,34.53
2018-10-11T03:45:15.305Z,34.07
2018-10-11T03:47:44.009Z,34.20
2018-10-11T03:50:12.679Z,34.77
2018-10-11T03:52:41.351Z,35.63
2018-10-11T03:55:10.128Z,35.53
2018-10-11T03:57:38.771Z,36.17
2018-10-11T04:00:07.519Z,34.57
2018-10-11T04:02:36.292Z,35.97
2018-10-11T04:05:04.897Z,36.43
2018-10-11T04:07:33.563Z,35.70
2018-10-11T04:10:02.282Z,35.50
2018-10-11T04:12:30.942Z,36.83
2018-10-11T04:14:59.669Z,34.83
2018-10-11T04:17:28.425Z,36.07
2018-10-11T04:19:57.444Z,35.07
2018-10-11T04:22:26.170Z,37.07
2018-10-11T04:24:54.966Z,35.73
2018-10-11T04:27:23.700Z,35.20
2018-10-11T04:29:52.325Z,37.00
2018-10-11T04:32:20.890Z,35.77
2018-10-11T04:34:49.504Z,36.03
2018-10-11T04:37:18.316Z,36.37
2018-10-11T04:39:46.894Z,35.20
2018-10-11T04:42:15.483Z,35.97
2018-10-11T04:44:44.058Z,34.80
2018-10-11T04:47:12.759Z,34.70
2018-10-11T04:49:41.334Z,36.23
2018-10-11T04:52:09.968Z,35.10
2018-10-11T04:54:40.539Z,33.77
2018-10-11T04:57:09.642Z,34.53
2018-10-11T04:59:43.996Z,35.63
2018-10-11T05:02:12.784Z,35.20
2018-10-11T05:04:41.628Z,33.87
2018-10-11T05:07:12.837Z,34.50
2018-10-11T05:09:41.610Z,33.60
2018-10-11T05:12:10.300Z,33.50
2018-10-11T05:14:38.961Z,33.20
2018-10-11T05:17:08.281Z,31.97
2018-10-11T05:19:37.688Z,31.87
2018-10-11T05:22:06.382Z,31.53
2018-10-11T05:24:34.992Z,30.00
2018-10-11T05:27:03.655Z,31.47
2018-10-11T05:29:32.239Z,31.40
2018-10-11T05:32:01.531Z,31.27
2018-10-11T05:34:30.143Z,33.07
2018-10-11T05:36:58.851Z,32.57
2018-10-11T05:39:28.507Z,33.70
2018-10-11T05:41:57.696Z,33.20
2018-10-11T05:44:26.447Z,34.07
2018-10-11T05:46:56.922Z,33.07
2018-10-11T05:49:26.432Z,32.40
2018-10-11T05:51:55.156Z,32.40
2018-10-11T05:54:23.712Z,31.90
2018-10-11T05:56:52.496Z,31.33
2018-10-11T05:59:21.032Z,31.77
2018-10-11T06:01:50.488Z,32.00
2018-10-11T06:04:19.208Z,31.23
2018-10-11T06:06:48.701Z,30.30
2018-10-11T06:09:18.038Z,29.90
2018-10-11T06:11:46.671Z,30.57
2018-10-11T06:14:15.628Z,30.50
2018-10-11T06:16:44.478Z,30.87
2018-10-11T06:19:13.981Z,31.17
2018-10-11T06:21:42.726Z,31.87
2018-10-11T06:24:11.482Z,31.33
2018-10-11T06:26:40.181Z,32.17
2018-10-11T06:29:08.763Z,32.27
2018-10-11T06:31:37.596Z,32.07
2018-10-11T06:34:06.245Z,30.93
2018-10-11T06:36:34.928Z,31.27
2018-10-11T06:39:04.331Z,31.27
2018-10-11T06:41:32.975Z,30.57
2018-10-11T06:44:01.688Z,31.30
2018-10-11T06:46:30.319Z,29.37
2018-10-11T06:48:58.999Z,30.40
2018-10-11T06:51:27.590Z,30.77
2018-10-11T06:53:56.161Z,32.10
2018-10-11T06:56:25.324Z,29.47
2018-10-11T06:58:54.512Z,30.37
2018-10-11T07:01:23.236Z,30.17
2018-10-11T07:03:51.911Z,29.90
2018-10-11T07:06:20.520Z,29.47
2018-10-11T07:08:49.182Z,28.40
2018-10-11T07:11:17.885Z,29.27
2018-10-11T07:13:46.562Z,28.60
2018-10-11T07:16:15.433Z,29.60
2018-10-11T07:18:44.200Z,28.47
2018-10-11T07:21:12.976Z,27.77
2018-10-11T07:23:41.637Z,27.43
2018-10-11T07:26:10.299Z,26.97
2018-10-11T07:28:38.909Z,27.80
2018-10-11T07:31:07.563Z,26.40
2018-10-11T07:33:36.219Z,25.77
2018-10-11T07:36:05.103Z,25.20
2018-10-11T07:38:33.856Z,25.15
2018-10-11T07:41:02.631Z,22.82
2018-10-11T07:43:31.386Z,22.02
2018-10-11T07:46:00.020Z,21.52
2018-10-11T07:48:28.698Z,21.50
2018-10-11T07:50:57.343Z,21.12
2018-10-11T07:53:26.004Z,21.70
2018-10-11T07:55:54.581Z,21.48
2018-10-11T07:58:23.260Z,20.92
2018-10-11T08:00:51.847Z,21.60
2018-10-11T08:03:20.517Z,21.10
2018-10-11T08:05:49.231Z,21.33
2018-10-11T08:08:17.875Z,20.37
2018-10-11T08:10:46.669Z,20.57
2018-10-11T08:13:15.444Z,20.43
2018-10-11T08:15:44.157Z,20.32
2018-10-11T08:18:12.743Z,19.98
2018-10-11T08:20:41.974Z,19.17
2018-10-11T08:23:10.387Z,19.60
2018-10-11T08:25:39.287Z,19.40
2018-10-11T08:28:07.839Z,19.30
2018-10-11T08:30:36.578Z,18.07
2018-10-11T08:33:05.445Z,18.35
2018-10-11T08:35:34.135Z,18.25
2018-10-11T08:38:03.102Z,17.95
2018-10-11T08:40:31.562Z,18.82
2018-10-11T08:43:00.294Z,18.90
2018-10-11T08:45:29.387Z,18.92
2018-10-11T08:47:58.016Z,17.73
2018-10-11T08:50:26.883Z,18.60
2018-10-11T08:52:55.650Z,18.50
2018-10-11T08:55:24.276Z,18.82
2018-10-11T08:57:52.953Z,18.23
2018-10-11T09:00:21.806Z,17.98
2018-10-11T09:02:50.468Z,18.32
2018-10-11T09:05:19.107Z,16.87
2018-10-11T09:07:51.633Z,16.75
2018-10-11T09:10:21.392Z,16.50
2018-10-11T09:13:00.333Z,16.07
2018-10-11T09:15:28.969Z,16.82
2018-10-11T09:17:57.666Z,16.62
2018-10-11T09:20:26.300Z,17.32
2018-10-11T09:22:55.007Z,16.07
2018-10-11T09:25:23.689Z,15.35
2018-10-11T09:27:52.506Z,15.00
2018-10-11T09:30:21.219Z,15.25
2018-10-11T09:32:49.836Z,14.60
2018-10-11T09:35:18.473Z,15.08
2018-10-11T09:37:47.126Z,15.30
2018-10-11T09:40:15.765Z,13.83
2018-10-11T09:42:44.416Z,14.65
2018-10-11T09:45:13.117Z,13.83
2018-10-11T09:47:42.044Z,14.05
2018-10-11T09:50:10.680Z,13.98
2018-10-11T09:52:39.296Z,14.45
2018-10-11T09:55:07.964Z,14.30
2018-10-11T09:57:37.882Z,14.75
2018-10-11T10:00:12.952Z,14.55
2018-10-11T10:02:41.803Z,13.58
2018-10-11T10:05:10.522Z,13.62
2018-10-11T10:07:39.469Z,13.83
2018-10-11T10:10:08.289Z,13.88
2018-10-11T10:12:37.032Z,13.75
2018-10-11T10:15:05.724Z,13.88
2018-10-11T10:17:34.824Z,14.40
2018-10-11T10:20:03.426Z,14.07
2018-10-11T10:22:32.029Z,14.00
2018-10-11T10:25:00.637Z,13.90
2018-10-11T10:27:29.348Z,13.45
2018-10-11T10:29:58.066Z,13.10
2018-10-11T10:32:26.706Z,13.48
2018-10-11T10:34:55.587Z,13.28
2018-10-11T10:37:24.317Z,13.62
2018-10-11T10:39:53.086Z,13.28
2018-10-11T10:42:21.881Z,13.25
2018-10-11T10:44:50.515Z,14.53
2018-10-11T10:47:19.184Z,14.33
2018-10-11T10:49:47.889Z,13.35
2018-10-11T10:52:16.644Z,14.07
2018-10-11T10:54:46.465Z,14.00
2018-10-11T10:57:15.101Z,13.70
2018-10-11T10:59:43.722Z,14.45
2018-10-11T11:02:12.404Z,13.88
2018-10-11T11:04:41.101Z,13.32
2018-10-11T11:07:09.787Z,14.68
2018-10-11T11:09:38.532Z,13.08
2018-10-11T11:12:07.336Z,13.88
2018-10-11T11:14:35.975Z,13.22
2018-10-11T11:17:04.750Z,13.83
2018-10-11T11:19:33.552Z,13.83
2018-10-11T11:22:02.353Z,14.35
2018-10-11T11:24:31.042Z,13.40
2018-10-11T11:27:01.210Z,13.43
2018-10-11T11:29:29.992Z,13.55
2018-10-11T11:31:58.718Z,14.43
2018-10-11T11:34:27.525Z,13.38
2018-10-11T11:36:56.342Z,13.03
2018-10-11T11:39:25.066Z,14.23
2018-10-11T11:41:54.920Z,13.05
2018-10-11T11:44:23.562Z,13.65
2018-10-11T11:46:52.375Z,14.05
2018-10-11T11:49:21.235Z,13.43
2018-10-11T11:51:50.363Z,13.18
2018-10-11T11:54:20.287Z,13.00
2018-10-11T11:56:49.489Z,13.43
2018-10-11T11:59:18.179Z,13.62
2018-10-11T12:01:46.856Z,13.10
2018-10-11T12:04:15.572Z,13.15
2018-10-11T12:06:44.244Z,12.95
2018-10-11T12:09:13.812Z,13.35
2018-10-11T12:11:42.758Z,14.10
2018-10-11T12:14:12.588Z,12.50
2018-10-11T12:16:41.328Z,13.20
2018-10-11T12:19:11.546Z,14.07
2018-10-11T12:21:40.948Z,12.30
2018-10-11T12:24:09.964Z,14.40
2018-10-11T12:26:38.586Z,13.50
2018-10-11T12:29:07.392Z,12.95
2018-10-11T12:31:35.908Z,13.80
2018-10-11T12:34:04.608Z,13.35
2018-10-11T12:36:33.366Z,13.62
2018-10-11T12:39:02.278Z,13.40
2018-10-11T12:41:31.083Z,13.55
2018-10-11T12:43:59.726Z,13.30
2018-10-11T12:46:30.519Z,13.68
2018-10-11T12:48:57.165Z,12.60
2018-10-11T12:51:25.947Z,13.40
2018-10-11T12:53:54.593Z,12.85
2018-10-11T12:56:23.556Z,13.15
2018-10-11T12:58:52.250Z,12.75
2018-10-11T13:01:22.978Z,12.95
2018-10-11T13:03:49.636Z,13.72
2018-10-11T13:06:18.394Z,12.35
2018-10-11T13:08:47.132Z,13.48
2018-10-11T13:11:17.446Z,13.10
2018-10-11T13:13:49.041Z,12.65
2018-10-11T13:16:14.905Z,14.15
2018-10-11T13:18:43.575Z,13.13
2018-10-11T13:21:12.964Z,13.78
2018-10-11T13:23:41.738Z,13.65
2018-10-11T13:26:10.464Z,12.65
2018-10-11T13:28:39.292Z,12.50
2018-10-11T13:31:08.033Z,13.78
2018-10-11T13:33:36.812Z,13.30
2018-10-11T13:36:05.536Z,12.70
2018-10-11T13:38:34.232Z,13.22
2018-10-11T13:41:03.871Z,12.98
2018-10-11T13:43:31.734Z,11.97
2018-10-11T13:46:02.540Z,12.55
2018-10-11T13:48:29.110Z,12.82
2018-10-11T13:50:57.954Z,12.33
2018-10-11T13:53:27.233Z,13.40
2018-10-11T13:55:58.310Z,12.30
2018-10-11T13:58:24.827Z,12.05
2018-10-11T14:00:53.735Z,11.80
2018-10-11T14:03:22.456Z,12.80
2018-10-11T14:05:51.105Z,12.88
2018-10-11T14:08:19.751Z,11.80
2018-10-11T14:10:48.558Z,12.47
2018-10-11T14:15:52.201Z,12.00
2018-10-11T14:18:20.890Z,12.15
2018-10-11T14:20:49.588Z,12.03
2018-10-11T14:23:18.255Z,11.88
2018-10-11T14:25:46.954Z,12.20
2018-10-11T14:28:15.638Z,12.18
2018-10-11T14:30:44.655Z,11.80
2018-10-11T14:33:13.408Z,13.20
2018-10-11T14:35:42.172Z,12.73
2018-10-11T14:38:10.923Z,11.80
2018-10-11T14:40:39.646Z,11.50
2018-10-11T14:43:08.476Z,11.45
2018-10-11T14:45:37.413Z,11.20
2018-10-11T14:48:06.152Z,11.60
2018-10-11T14:50:35.037Z,10.90
2018-10-11T14:53:03.724Z,10.68
2018-10-11T14:55:32.500Z,10.43
2018-10-11T14:58:01.114Z,10.85
2018-10-11T15:00:29.780Z,10.38
2018-10-11T15:02:58.643Z,10.38
2018-10-11T15:05:27.350Z,10.38
2018-10-11T15:07:55.966Z,11.57
2018-10-11T15:10:24.630Z,10.30
2018-10-11T15:12:53.296Z,11.28
2018-10-11T15:15:22.301Z,10.93
2018-10-11T15:17:51.248Z,10.03
2018-10-11T15:20:19.890Z,11.33
2018-10-11T15:22:48.536Z,10.65
2018-10-11T15:25:17.330Z,10.72
2018-10-11T15:27:45.937Z,10.25
2018-10-11T15:30:14.797Z,10.78
2018-10-11T15:32:43.413Z,9.88
2018-10-11T15:35:12.071Z,10.48
2018-10-11T15:37:40.739Z,11.03
2018-10-11T15:40:09.403Z,11.08
2018-10-11T15:42:38.167Z,11.43
2018-10-11T15:45:07.401Z,11.03
2018-10-11T15:47:36.327Z,10.85
2018-10-11T15:50:05.082Z,11.35
2018-10-11T15:52:34.044Z,10.58
2018-10-11T15:55:02.606Z,12.03
2018-10-11T15:57:31.491Z,12.43
2018-10-11T16:00:00.437Z,11.60
2018-10-11T16:02:29.178Z,11.68
2018-10-11T16:04:58.220Z,11.35
2018-10-11T16:07:26.974Z,11.20
2018-10-11T16:09:55.650Z,11.03
2018-10-11T16:12:24.478Z,11.95
2018-10-11T16:14:53.142Z,11.40
2018-10-11T16:17:21.990Z,11.88
2018-10-11T16:19:50.634Z,11.78
2018-10-11T16:22:19.613Z,12.25
2018-10-11T16:24:48.540Z,12.90
2018-10-11T16:27:17.145Z,11.70
2018-10-11T16:29:46.042Z,12.03
2018-10-11T16:32:14.980Z,12.60
2018-10-11T16:34:43.711Z,12.58
2018-10-11T16:37:13.143Z,11.97
2018-10-11T16:39:41.878Z,12.78
2018-10-11T16:42:10.673Z,13.43
2018-10-11T16:44:39.445Z,14.03
2018-10-11T16:47:08.403Z,13.93
2018-10-11T16:49:37.183Z,13.18
2018-10-11T16:52:06.260Z,14.00
2018-10-11T16:54:35.129Z,13.03
2018-10-11T16:57:03.888Z,14.58
2018-10-11T16:59:32.608Z,13.65
2018-10-11T17:02:01.288Z,14.07
2018-10-11T17:04:30.497Z,14.10
2018-10-11T17:06:59.101Z,14.13
2018-10-11T17:09:28.000Z,13.90
2018-10-11T17:11:56.660Z,14.87
2018-10-11T17:14:25.444Z,14.58
2018-10-11T17:16:55.274Z,13.72
2018-10-11T17:19:34.801Z,14.35
2018-10-11T17:22:04.005Z,14.95
2018-10-11T17:31:34.059Z,14.53
2018-10-11T17:34:05.371Z,14.58
2018-10-11T17:36:51.171Z,15.25
2018-10-11T17:44:22.425Z,15.85
2018-10-11T17:46:54.545Z,15.85
2018-10-11T17:49:23.301Z,14.93
2018-10-11T17:51:54.756Z,16.35
2018-10-11T17:54:23.465Z,16.10
2018-10-11T17:56:54.616Z,15.23
2018-10-11T17:59:58.123Z,15.35
2018-10-11T18:02:27.930Z,16.57
2018-10-11T18:04:58.146Z,15.78
2018-10-11T18:07:27.344Z,16.20
2018-10-11T18:09:57.801Z,16.45
2018-10-11T18:12:27.927Z,16.70
2018-10-11T18:14:58.015Z,16.15
2018-10-11T18:17:26.754Z,16.52
2018-10-11T18:19:57.188Z,16.75
2018-10-11T18:22:26.996Z,16.95
2018-10-11T18:24:56.781Z,17.32
2018-10-11T18:27:25.736Z,16.50
2018-10-11T18:29:54.865Z,15.68
2018-10-11T18:32:24.400Z,16.95
2018-10-11T18:34:53.129Z,16.40
2018-10-11T18:37:24.095Z,16.50
2018-10-11T18:39:55.136Z,17.37
2018-10-11T18:42:23.864Z,16.10
2018-10-11T18:44:52.683Z,16.13
2018-10-11T18:47:21.823Z,16.48
2018-10-11T18:49:50.521Z,16.63
2018-10-11T18:52:19.287Z,16.17
2018-10-11T18:54:49.054Z,16.35
2018-10-11T18:57:17.993Z,15.83
2018-10-11T18:59:49.775Z,15.88
2018-10-11T19:02:18.889Z,15.15
2018-10-11T19:04:47.696Z,16.48
2018-10-11T19:07:17.550Z,15.80
2018-10-11T19:09:46.810Z,16.23
2018-10-11T19:12:28.146Z,16.27
2018-10-11T19:15:02.229Z,16.45
2018-10-11T19:17:37.087Z,16.37
2018-10-11T19:20:20.365Z,16.52
2018-10-11T19:22:55.548Z,16.27
2018-10-11T19:25:26.290Z,16.40
2018-10-11T19:27:59.234Z,16.65
2018-10-11T19:30:30.279Z,16.25
2018-10-11T19:33:00.922Z,16.13
2018-10-11T19:35:31.091Z,17.25
2018-10-11T19:38:03.087Z,16.87
2018-10-11T19:40:33.139Z,17.13
2018-10-11T19:43:03.351Z,16.57
2018-10-11T19:45:32.191Z,17.10
2018-10-11T19:48:04.603Z,16.87
2018-10-11T19:50:34.397Z,15.90
2018-10-11T19:53:03.225Z,16.60
2018-10-11T19:55:33.711Z,17.37
2018-10-11T19:58:03.823Z,17.13
2018-10-11T20:00:32.872Z,16.43
2018-10-11T20:03:04.034Z,15.47
2018-10-11T20:05:32.940Z,16.00
2018-10-11T20:08:05.164Z,16.50
2018-10-11T20:10:36.062Z,16.57
2018-10-11T20:13:05.050Z,17.07
2018-10-11T20:15:33.793Z,15.33
2018-10-11T20:18:03.904Z,16.37
2018-10-11T20:20:35.961Z,16.03
2018-10-11T20:23:13.238Z,16.70
2018-10-11T20:25:46.286Z,16.27
2018-10-11T20:28:15.014Z,15.60
2018-10-11T20:30:45.084Z,16.30
2018-10-11T20:33:13.720Z,15.23
2018-10-11T20:35:42.496Z,16.20
2018-10-11T20:38:11.181Z,16.30
2018-10-11T20:40:39.836Z,15.90
2018-10-11T20:43:09.392Z,16.37
2018-10-11T20:45:39.617Z,16.13
2018-10-11T20:48:08.788Z,15.70
2018-10-11T20:50:37.825Z,15.47
2018-10-11T20:53:07.275Z,16.40
2018-10-11T20:55:44.689Z,15.20
2018-10-11T20:58:14.409Z,15.63
2018-10-11T21:00:43.272Z,15.43
2018-10-11T21:03:12.022Z,16.13
2018-10-11T21:05:41.009Z,16.07
2018-10-11T21:08:10.026Z,15.30
2018-10-11T21:10:38.830Z,15.63
2018-10-11T21:15:56.504Z,15.18
2018-10-11T21:18:30.602Z,14.80
2018-10-11T21:20:59.241Z,15.40
2018-10-11T21:23:28.103Z,14.70
2018-10-11T21:25:56.846Z,15.20
2018-10-11T21:28:36.872Z,15.30
2018-10-11T21:31:17.662Z,15.07
2018-10-11T21:37:06.808Z,15.03
2018-10-11T21:39:36.270Z,14.80
2018-10-11T21:42:05.768Z,15.17
2018-10-11T21:44:35.926Z,14.50
2018-10-11T21:47:07.002Z,15.13
2018-10-11T21:49:36.056Z,14.10
2018-10-11T21:52:04.949Z,14.73
2018-10-11T21:54:34.420Z,14.37
2018-10-11T21:57:04.008Z,14.33
2018-10-11T21:59:34.348Z,14.03
2018-10-11T22:02:03.490Z,14.80
2018-10-11T22:04:35.252Z,14.53
2018-10-11T22:07:04.232Z,14.47
2018-10-11T22:09:33.379Z,14.47
2018-10-11T22:12:03.307Z,14.67
2018-10-11T22:14:35.868Z,14.53
2018-10-11T22:17:05.590Z,14.47
2018-10-11T22:19:35.603Z,14.67
2018-10-11T22:22:05.211Z,14.20
2018-10-11T22:24:34.919Z,14.10
2018-10-11T22:27:04.112Z,14.87
2018-10-11T22:29:41.836Z,14.20
2018-10-11T22:35:02.441Z,14.13
2018-10-11T22:37:39.092Z,13.73
2018-10-11T22:40:12.682Z,14.90
2018-10-11T22:42:50.588Z,13.90
2018-10-11T22:45:19.802Z,13.97
2018-10-11T22:48:00.102Z,14.17
2018-10-11T22:50:35.543Z,14.13
2018-10-11T22:53:12.794Z,14.50
2018-10-11T22:55:48.183Z,14.30
2018-10-11T22:58:30.034Z,13.30
2018-10-11T23:01:26.028Z,13.70
2018-10-11T23:04:05.858Z,14.00
2018-10-11T23:06:43.552Z,13.67
2018-10-11T23:09:17.247Z,14.43
2018-10-11T23:11:59.925Z,15.03
2018-10-11T23:14:34.856Z,13.53
2018-10-11T23:17:56.909Z,13.60
2018-10-11T23:20:36.349Z,14.20
2018-10-11T23:23:13.551Z,13.80
2018-10-11T23:25:52.579Z,13.90
2018-10-11T23:28:24.874Z,14.87
2018-10-11T23:30:53.547Z,14.37
2018-10-11T23:33:22.327Z,14.83
2018-10-11T23:35:58.689Z,14.63
2018-10-11T23:38:28.899Z,15.03
2018-10-11T23:40:57.583Z,14.13
2018-10-11T23:43:26.289Z,14.27
2018-10-11T23:45:54.935Z,14.40
2018-10-11T23:48:23.593Z,13.10
2018-10-11T23:50:52.249Z,14.93
2018-10-11T23:53:20.927Z,15.17
2018-10-11T23:55:50.365Z,14.10
2018-10-11T23:58:18.980Z,14.53
